createdAt,value
2023-02-08T00:01:15.521Z,15.73
2023-02-08T00:03:46.022Z,19.13
2023-02-08T00:06:14.963Z,18.53
2023-02-08T00:08:43.651Z,16.40
2023-02-08T00:11:12.523Z,17.93
2023-02-08T00:13:42.201Z,17.43
2023-02-08T00:16:12.434Z,16.23
2023-02-08T00:18:41.046Z,17.67
2023-02-08T00:21:12.051Z,17.47
2023-02-08T00:23:41.167Z,15.90
2023-02-08T00:26:09.736Z,16.93
2023-02-08T00:28:38.702Z,16.80
2023-02-08T00:31:07.330Z,16.93
2023-02-08T00:33:35.913Z,14.83
2023-02-08T00:36:05.164Z,17.80
2023-02-08T00:38:34.988Z,17.07
2023-02-08T00:41:03.402Z,16.97
2023-02-08T00:43:31.910Z,18.30
2023-02-08T00:46:00.989Z,17.10
2023-02-08T00:48:29.718Z,21.13
2023-02-08T00:51:04.865Z,18.03
2023-02-08T00:53:33.552Z,17.93
2023-02-08T00:56:03.325Z,17.03
2023-02-08T00:58:31.780Z,19.57
2023-02-08T01:01:00.183Z,16.97
2023-02-08T01:03:28.667Z,22.03
2023-02-08T01:06:01.807Z,23.27
2023-02-08T01:08:30.317Z,23.80
2023-02-08T01:11:05.335Z,26.00
2023-02-08T01:13:34.589Z,19.17
2023-02-08T01:16:10.231Z,22.47
2023-02-08T01:18:38.890Z,23.97
2023-02-08T01:21:08.316Z,24.90
2023-02-08T01:23:37.127Z,27.60
2023-02-08T01:26:07.723Z,32.60
2023-02-08T01:28:36.128Z,26.43
2023-02-08T01:31:07.086Z,29.77
2023-02-08T01:33:35.637Z,26.43
2023-02-08T01:36:04.054Z,24.70
2023-02-08T01:38:32.479Z,29.93
2023-02-08T01:41:01.026Z,25.80
2023-02-08T01:43:31.654Z,27.07
2023-02-08T01:46:00.104Z,26.23
2023-02-08T01:48:29.828Z,31.83
2023-02-08T01:51:00.700Z,28.80
2023-02-08T01:53:30.498Z,27.80
2023-02-08T01:56:00.130Z,24.70
2023-02-08T01:58:29.911Z,32.63
2023-02-08T02:00:59.822Z,22.47
2023-02-08T02:03:28.269Z,25.00
2023-02-08T02:05:59.146Z,35.40
2023-02-08T02:08:27.604Z,24.33
2023-02-08T02:10:56.011Z,28.60
2023-02-08T02:13:25.892Z,26.97
2023-02-08T02:15:55.505Z,28.20
2023-02-08T02:18:27.086Z,26.10
2023-02-08T02:21:10.321Z,27.23
2023-02-08T02:23:53.580Z,22.10
2023-02-08T02:26:40.520Z,22.80
2023-02-08T02:29:23.884Z,22.80
2023-02-08T02:32:13.319Z,21.63
2023-02-08T02:34:47.204Z,20.87
2023-02-08T02:37:23.959Z,19.43
2023-02-08T02:39:56.116Z,21.67
2023-02-08T02:42:43.930Z,28.60
2023-02-08T02:45:15.080Z,21.90
2023-02-08T02:47:47.570Z,23.40
2023-02-08T02:50:21.172Z,25.63
2023-02-08T02:52:53.470Z,24.80
2023-02-08T02:55:24.695Z,20.20
2023-02-08T02:57:55.474Z,25.40
2023-02-08T03:00:25.533Z,26.20
2023-02-08T03:02:56.196Z,27.30
2023-02-08T03:05:24.604Z,24.77
2023-02-08T03:08:00.789Z,25.77
2023-02-08T03:10:36.789Z,28.20
2023-02-08T03:13:08.404Z,26.43
2023-02-08T03:15:42.173Z,28.37
2023-02-08T03:18:19.827Z,24.83
2023-02-08T03:20:51.915Z,20.50
2023-02-08T03:23:21.839Z,26.30
2023-02-08T03:25:52.269Z,25.83
2023-02-08T03:28:24.905Z,26.10
2023-02-08T03:30:59.265Z,22.10
2023-02-08T03:33:31.385Z,23.43
2023-02-08T03:36:03.648Z,29.53
2023-02-08T03:38:34.844Z,31.03
2023-02-08T03:41:04.891Z,27.87
2023-02-08T03:43:35.912Z,27.73
2023-02-08T03:46:07.674Z,27.40
2023-02-08T03:48:38.652Z,32.50
2023-02-08T03:51:08.018Z,30.33
2023-02-08T03:53:40.564Z,25.47
2023-02-08T03:56:10.470Z,27.50
2023-02-08T03:58:42.084Z,31.53
2023-02-08T04:01:13.346Z,28.33
2023-02-08T04:03:43.571Z,30.77
2023-02-08T04:06:12.283Z,33.00
2023-02-08T04:08:40.674Z,27.23
2023-02-08T04:11:09.098Z,26.17
2023-02-08T04:13:37.983Z,31.17
2023-02-08T04:16:06.535Z,28.00
2023-02-08T04:18:35.323Z,30.03
2023-02-08T04:21:05.102Z,25.43
2023-02-08T04:23:33.576Z,28.83
2023-02-08T04:26:02.016Z,28.30
2023-02-08T04:28:30.414Z,26.10
2023-02-08T04:30:58.901Z,28.80
2023-02-08T04:33:27.423Z,27.57
2023-02-08T04:35:55.824Z,27.90
2023-02-08T04:38:25.716Z,25.53
2023-02-08T04:40:54.140Z,27.43
2023-02-08T04:43:22.510Z,27.63
2023-02-08T04:45:51.582Z,26.57
2023-02-08T04:48:20.367Z,24.93
2023-02-08T04:50:48.769Z,30.00
2023-02-08T04:53:17.243Z,28.80
2023-02-08T04:55:47.048Z,29.03
2023-02-08T04:58:15.513Z,27.80
2023-02-08T05:00:43.945Z,28.00
2023-02-08T05:03:12.357Z,30.00
2023-02-08T05:05:40.811Z,28.00
2023-02-08T05:08:09.399Z,30.03
2023-02-08T05:10:38.008Z,26.77
2023-02-08T05:13:08.078Z,27.77
2023-02-08T05:15:36.625Z,29.20
2023-02-08T05:18:05.039Z,27.73
2023-02-08T05:20:33.738Z,27.73
2023-02-08T05:23:02.207Z,28.03
2023-02-08T05:25:30.744Z,24.23
2023-02-08T05:27:59.185Z,27.50
2023-02-08T05:30:29.011Z,28.57
2023-02-08T05:32:57.409Z,25.10
2023-02-08T05:35:25.766Z,30.33
2023-02-08T05:37:54.146Z,24.63
2023-02-08T05:40:22.607Z,27.90
2023-02-08T05:42:50.982Z,26.90
2023-02-08T05:45:19.388Z,25.90
2023-02-08T05:47:49.189Z,28.07
2023-02-08T05:50:17.599Z,25.53
2023-02-08T05:52:45.985Z,29.00
2023-02-08T05:55:14.658Z,25.87
2023-02-08T05:57:43.091Z,26.77
2023-02-08T06:00:12.010Z,28.30
2023-02-08T06:02:40.446Z,27.97
2023-02-08T06:05:10.965Z,25.67
2023-02-08T06:07:39.364Z,27.50
2023-02-08T06:10:10.471Z,25.43
2023-02-08T06:12:39.840Z,26.43
2023-02-08T06:15:08.415Z,23.80
2023-02-08T06:17:36.834Z,25.13
2023-02-08T06:20:06.805Z,22.63
2023-02-08T06:22:37.492Z,23.63
2023-02-08T06:25:06.529Z,26.70
2023-02-08T06:27:34.949Z,24.00
2023-02-08T06:30:03.932Z,24.37
2023-02-08T06:32:32.483Z,22.60
2023-02-08T06:35:00.906Z,22.83
2023-02-08T06:37:29.408Z,24.67
2023-02-08T06:39:59.227Z,23.67
2023-02-08T06:42:27.636Z,23.60
2023-02-08T06:44:58.034Z,23.73
2023-02-08T06:47:26.861Z,26.60
2023-02-08T06:49:55.272Z,23.67
2023-02-08T06:52:24.022Z,24.17
2023-02-08T06:54:52.444Z,23.23
2023-02-08T06:57:22.223Z,21.43
2023-02-08T06:59:50.697Z,22.87
2023-02-08T07:02:20.359Z,25.80
2023-02-08T07:04:48.836Z,22.17
2023-02-08T07:07:17.788Z,27.03
2023-02-08T07:09:46.399Z,24.67
2023-02-08T07:12:14.811Z,27.67
2023-02-08T07:14:45.443Z,26.23
2023-02-08T07:17:14.059Z,27.83
2023-02-08T07:19:42.433Z,26.87
2023-02-08T07:22:10.864Z,30.27
2023-02-08T07:24:39.974Z,28.47
2023-02-08T07:27:09.575Z,32.13
2023-02-08T07:29:38.481Z,35.73
2023-02-08T07:32:09.126Z,29.33
2023-02-08T07:34:38.424Z,34.47
2023-02-08T07:37:06.880Z,28.27
2023-02-08T07:39:35.280Z,33.03
2023-02-08T07:42:05.431Z,39.53
2023-02-08T07:44:34.101Z,34.53
2023-02-08T07:47:02.797Z,38.63
2023-02-08T07:49:32.631Z,53.00
2023-02-08T07:52:01.132Z,47.10
2023-02-08T07:54:29.608Z,33.20
2023-02-08T07:56:58.060Z,32.30
2023-02-08T07:59:26.558Z,41.20
2023-02-08T08:01:55.060Z,33.90
2023-02-08T08:04:23.540Z,36.17
2023-02-08T08:06:53.827Z,36.77
2023-02-08T08:09:24.289Z,32.37
2023-02-08T08:11:52.723Z,37.87
2023-02-08T08:14:21.176Z,51.20
2023-02-08T08:16:49.659Z,37.00
2023-02-08T08:19:18.082Z,30.73
2023-02-08T08:21:46.542Z,38.83
2023-02-08T08:24:16.587Z,37.17
2023-02-08T08:26:44.995Z,39.60
2023-02-08T08:29:13.428Z,36.30
2023-02-08T08:31:42.777Z,35.13
2023-02-08T08:34:11.378Z,38.00
2023-02-08T08:36:39.815Z,38.67
2023-02-08T08:39:08.217Z,39.70
2023-02-08T08:41:40.643Z,37.73
2023-02-08T08:44:09.046Z,41.43
2023-02-08T08:46:37.505Z,44.67
2023-02-08T08:49:05.965Z,26.40
2023-02-08T08:51:35.497Z,31.77
2023-02-08T08:54:04.093Z,35.00
2023-02-08T08:56:32.645Z,55.13
2023-02-08T08:59:02.420Z,46.27
2023-02-08T09:01:33.553Z,46.70
2023-02-08T09:04:02.121Z,40.53
2023-02-08T09:06:30.550Z,39.83
2023-02-08T09:08:58.995Z,37.00
2023-02-08T09:11:27.416Z,46.30
2023-02-08T09:13:56.359Z,43.57
2023-02-08T09:16:26.708Z,59.80
2023-02-08T09:18:55.114Z,56.27
2023-02-08T09:21:24.749Z,47.17
2023-02-08T09:23:53.260Z,62.20
2023-02-08T09:26:21.844Z,44.53
2023-02-08T09:28:50.476Z,37.80
2023-02-08T09:31:21.658Z,35.03
2023-02-08T09:33:52.019Z,55.50
2023-02-08T09:36:20.816Z,44.93
2023-02-08T09:38:50.017Z,44.43
2023-02-08T09:41:26.847Z,31.13
2023-02-08T09:44:01.312Z,47.07
2023-02-08T09:46:31.219Z,44.90
2023-02-08T09:49:02.726Z,29.73
2023-02-08T09:51:32.507Z,60.63
2023-02-08T09:54:03.958Z,55.47
2023-02-08T09:56:36.323Z,39.63
2023-02-08T09:59:06.460Z,41.00
2023-02-08T10:01:36.547Z,30.90
2023-02-08T10:04:08.205Z,56.27
2023-02-08T10:06:36.929Z,58.17
2023-02-08T10:09:07.415Z,62.07
2023-02-08T10:11:46.095Z,35.50
2023-02-08T10:14:23.317Z,37.23
2023-02-08T10:16:57.611Z,36.93
2023-02-08T10:19:35.058Z,48.87
2023-02-08T10:22:11.600Z,39.20
2023-02-08T10:24:47.791Z,35.90
2023-02-08T10:27:17.414Z,41.73
2023-02-08T10:30:01.570Z,44.57
2023-02-08T10:32:37.146Z,53.83
2023-02-08T10:35:11.785Z,44.00
2023-02-08T10:37:42.211Z,47.40
2023-02-08T10:40:17.848Z,44.07
2023-02-08T10:42:49.523Z,46.87
2023-02-08T10:45:24.600Z,40.03
2023-02-08T10:47:55.714Z,38.33
2023-02-08T10:50:31.155Z,50.40
2023-02-08T10:52:59.783Z,47.23
2023-02-08T10:55:28.237Z,59.77
2023-02-08T10:57:58.960Z,54.23
2023-02-08T11:00:29.877Z,49.17
2023-02-08T11:03:00.742Z,41.97
2023-02-08T11:05:40.706Z,32.23
2023-02-08T11:08:10.090Z,38.47
2023-02-08T11:10:38.746Z,35.70
2023-02-08T11:13:08.869Z,28.33
2023-02-08T11:15:41.057Z,37.67
2023-02-08T11:18:17.679Z,33.50
2023-02-08T11:20:50.177Z,29.20
2023-02-08T11:23:23.675Z,30.17
2023-02-08T11:25:52.162Z,38.47
2023-02-08T11:28:25.199Z,34.60
2023-02-08T11:30:57.788Z,35.87
2023-02-08T11:33:27.463Z,34.17
2023-02-08T11:35:58.606Z,46.20
2023-02-08T11:38:28.590Z,41.87
2023-02-08T11:40:58.245Z,46.10
2023-02-08T11:43:27.826Z,40.63
2023-02-08T11:45:57.303Z,34.27
2023-02-08T11:48:27.570Z,68.83
2023-02-08T11:50:59.086Z,68.73
2023-02-08T11:53:30.088Z,51.87
2023-02-08T11:56:09.406Z,52.43
2023-02-08T11:58:37.818Z,36.53
2023-02-08T12:01:07.403Z,35.10
2023-02-08T12:03:39.337Z,51.77
2023-02-08T12:06:17.227Z,50.80
2023-02-08T12:08:50.248Z,47.70
2023-02-08T12:11:21.471Z,50.80
2023-02-08T12:14:03.163Z,67.90
2023-02-08T12:16:39.307Z,47.53
2023-02-08T12:19:21.819Z,85.53
2023-02-08T12:21:55.869Z,46.73
2023-02-08T12:24:28.637Z,44.70
2023-02-08T12:27:15.638Z,50.63
2023-02-08T12:29:48.450Z,67.70
2023-02-08T12:32:23.657Z,62.70
2023-02-08T12:35:00.186Z,51.57
2023-02-08T12:37:52.232Z,48.83
2023-02-08T12:40:46.801Z,80.87
2023-02-08T12:43:21.138Z,53.20
2023-02-08T12:45:57.153Z,52.03
2023-02-08T12:48:36.431Z,50.67
2023-02-08T12:51:07.820Z,53.77
2023-02-08T12:53:41.198Z,60.53
2023-02-08T12:56:12.907Z,53.13
2023-02-08T12:58:45.251Z,72.90
2023-02-08T13:01:14.865Z,53.23
2023-02-08T13:03:45.960Z,45.10
2023-02-08T13:06:17.564Z,46.13
2023-02-08T13:08:49.948Z,44.33
2023-02-08T13:11:21.963Z,56.37
2023-02-08T13:13:58.820Z,61.57
2023-02-08T13:16:30.100Z,76.17
2023-02-08T13:19:05.152Z,56.43
2023-02-08T13:21:38.129Z,43.40
2023-02-08T13:24:13.834Z,63.80
2023-02-08T13:26:42.288Z,55.87
2023-02-08T13:29:17.790Z,34.20
2023-02-08T13:31:49.663Z,41.00
2023-02-08T13:34:20.617Z,39.17
2023-02-08T13:36:55.673Z,46.77
2023-02-08T13:39:33.543Z,55.27
2023-02-08T13:42:02.532Z,43.27
2023-02-08T13:44:33.480Z,53.20
2023-02-08T13:47:01.948Z,61.77
2023-02-08T13:49:43.737Z,64.77
2023-02-08T13:52:13.026Z,51.30
2023-02-08T13:54:44.128Z,48.87
2023-02-08T13:57:27.449Z,43.10
2023-02-08T14:00:10.739Z,68.80
2023-02-08T14:02:39.172Z,87.60
2023-02-08T14:05:26.149Z,44.50
2023-02-08T14:07:58.423Z,52.23
2023-02-08T14:10:32.018Z,54.80
2023-02-08T14:13:02.900Z,41.67
2023-02-08T14:15:36.742Z,58.47
2023-02-08T14:18:06.606Z,60.13
2023-02-08T14:20:37.090Z,48.77
2023-02-08T14:23:06.697Z,28.33
2023-02-08T14:25:45.204Z,59.13
2023-02-08T14:28:25.487Z,44.60
2023-02-08T14:30:56.398Z,65.40
2023-02-08T14:33:27.045Z,51.97
2023-02-08T14:35:56.904Z,64.43
2023-02-08T14:38:49.032Z,83.20
2023-02-08T14:41:32.314Z,47.23
2023-02-08T14:44:22.108Z,59.67
2023-02-08T14:46:50.602Z,68.27
2023-02-08T14:49:20.263Z,64.27
2023-02-08T14:51:51.826Z,55.50
2023-02-08T14:54:23.600Z,44.07
2023-02-08T14:56:56.642Z,34.20
2023-02-08T14:59:28.292Z,60.37
2023-02-08T15:01:58.602Z,35.60
2023-02-08T15:04:27.323Z,53.70
2023-02-08T15:07:20.000Z,57.73
2023-02-08T15:09:48.510Z,55.30
2023-02-08T15:12:19.290Z,39.27
2023-02-08T15:14:49.416Z,38.13
2023-02-08T15:17:21.847Z,32.73
2023-02-08T15:19:52.348Z,40.93
2023-02-08T15:22:32.996Z,36.57
2023-02-08T15:25:02.966Z,29.93
2023-02-08T15:27:32.354Z,40.90
2023-02-08T15:30:03.005Z,36.10
2023-02-08T15:32:32.199Z,49.50
2023-02-08T15:35:01.125Z,43.97
2023-02-08T15:37:32.331Z,43.30
2023-02-08T15:40:01.618Z,42.83
2023-02-08T15:42:30.845Z,26.90
2023-02-08T15:45:00.630Z,43.67
2023-02-08T15:47:32.465Z,32.90
2023-02-08T15:50:01.479Z,41.43
2023-02-08T15:52:31.386Z,32.07
2023-02-08T15:54:59.858Z,27.40
2023-02-08T15:57:35.790Z,47.20
2023-02-08T16:00:04.924Z,31.63
2023-02-08T16:02:35.705Z,39.20
2023-02-08T16:05:12.699Z,33.20
2023-02-08T16:07:42.321Z,44.50
2023-02-08T16:10:19.110Z,34.23
2023-02-08T16:12:51.978Z,31.00
2023-02-08T16:15:39.622Z,29.60
2023-02-08T16:18:33.151Z,33.20
2023-02-08T16:21:01.932Z,42.87
2023-02-08T16:23:31.088Z,42.43
2023-02-08T16:26:00.091Z,45.70
2023-02-08T16:28:30.739Z,53.23
2023-02-08T16:31:00.220Z,54.20
2023-02-08T16:33:30.909Z,26.23
2023-02-08T16:36:02.140Z,48.57
2023-02-08T16:38:31.729Z,31.87
2023-02-08T16:41:12.065Z,55.13
2023-02-08T16:43:43.782Z,28.33
2023-02-08T16:46:21.119Z,30.33
2023-02-08T16:48:55.761Z,43.50
2023-02-08T16:51:25.723Z,41.23
2023-02-08T16:53:56.759Z,38.90
2023-02-08T16:56:25.369Z,44.33
2023-02-08T16:58:53.893Z,38.27
2023-02-08T17:01:23.602Z,67.93
2023-02-08T17:03:53.048Z,59.53
2023-02-08T17:06:30.751Z,43.53
2023-02-08T17:08:59.201Z,46.37
2023-02-08T17:11:27.842Z,61.50
2023-02-08T17:13:57.138Z,34.93
2023-02-08T17:16:26.940Z,34.47
2023-02-08T17:18:55.365Z,27.53
2023-02-08T17:21:23.837Z,42.67
2023-02-08T17:23:53.625Z,44.60
2023-02-08T17:26:24.127Z,31.53
2023-02-08T17:28:52.606Z,55.23
2023-02-08T17:31:21.075Z,38.00
2023-02-08T17:33:50.225Z,28.73
2023-02-08T17:36:19.047Z,27.27
2023-02-08T17:38:48.339Z,25.57
2023-02-08T17:41:19.400Z,28.57
2023-02-08T17:43:48.038Z,30.07
2023-02-08T17:46:17.862Z,25.67
2023-02-08T17:48:48.270Z,19.87
2023-02-08T17:51:17.884Z,25.73
2023-02-08T17:53:46.348Z,19.67
2023-02-08T17:56:16.178Z,28.47
2023-02-08T17:58:47.721Z,56.20
2023-02-08T18:01:19.950Z,46.87
2023-02-08T18:03:48.898Z,32.03
2023-02-08T18:06:17.434Z,41.20
2023-02-08T18:08:46.242Z,37.03
2023-02-08T18:11:18.011Z,36.80
2023-02-08T18:13:48.455Z,29.80
2023-02-08T18:16:18.398Z,26.07
2023-02-08T18:18:46.947Z,29.63
2023-02-08T18:21:17.304Z,24.37
2023-02-08T18:23:45.963Z,32.30
2023-02-08T18:26:15.738Z,20.97
2023-02-08T18:28:44.722Z,21.40
2023-02-08T18:31:15.616Z,38.67
2023-02-08T18:33:44.799Z,22.53
2023-02-08T18:36:13.270Z,25.90
2023-02-08T18:38:45.503Z,29.70
2023-02-08T18:41:14.988Z,28.87
2023-02-08T18:43:43.536Z,23.83
2023-02-08T18:46:12.884Z,19.93
2023-02-08T18:48:43.818Z,18.33
2023-02-08T18:51:14.445Z,23.60
2023-02-08T18:53:43.265Z,25.27
2023-02-08T18:56:13.771Z,18.63
2023-02-08T18:58:42.470Z,17.47
2023-02-08T19:01:11.710Z,36.73
2023-02-08T19:03:40.464Z,21.80
2023-02-08T19:06:11.496Z,21.40
2023-02-08T19:08:40.333Z,33.07
2023-02-08T19:11:15.518Z,19.77
2023-02-08T19:13:44.098Z,24.97
2023-02-08T19:16:13.054Z,23.70
2023-02-08T19:18:41.839Z,19.90
2023-02-08T19:21:12.652Z,23.43
2023-02-08T19:23:41.481Z,25.73
2023-02-08T19:26:10.825Z,21.60
2023-02-08T19:28:40.393Z,24.10
2023-02-08T19:31:09.876Z,21.47
2023-02-08T19:33:38.632Z,24.20
2023-02-08T19:36:12.233Z,24.17
2023-02-08T19:38:40.787Z,23.67
2023-02-08T19:41:10.111Z,22.23
2023-02-08T19:43:38.561Z,15.63
2023-02-08T19:46:10.933Z,24.40
2023-02-08T19:48:39.623Z,18.80
2023-02-08T19:51:08.393Z,18.97
2023-02-08T19:53:38.262Z,14.20
2023-02-08T19:56:07.815Z,22.57
2023-02-08T19:58:36.925Z,16.17
2023-02-08T20:01:08.071Z,17.27
2023-02-08T20:03:36.606Z,18.60
2023-02-08T20:06:05.442Z,18.63
2023-02-08T20:08:34.176Z,18.37
2023-02-08T20:11:03.945Z,16.10
2023-02-08T20:13:32.612Z,17.73
2023-02-08T20:16:01.486Z,20.43
2023-02-08T20:18:29.953Z,21.47
2023-02-08T20:21:02.227Z,26.47
2023-02-08T20:23:30.896Z,18.43
2023-02-08T20:26:11.563Z,17.67
2023-02-08T20:28:41.569Z,24.80
2023-02-08T20:31:10.498Z,20.03
2023-02-08T20:33:39.023Z,15.73
2023-02-08T20:36:11.133Z,19.83
2023-02-08T20:38:39.760Z,19.20
2023-02-08T20:41:11.127Z,16.13
2023-02-08T20:43:39.582Z,15.70
2023-02-08T20:46:08.758Z,15.50
2023-02-08T20:48:37.167Z,10.87
2023-02-08T20:51:06.419Z,20.27
2023-02-08T20:53:35.646Z,20.23
2023-02-08T20:56:06.657Z,14.83
2023-02-08T20:58:36.510Z,16.60
2023-02-08T21:01:08.435Z,17.00
2023-02-08T21:03:36.860Z,24.00
2023-02-08T21:06:13.003Z,16.40
2023-02-08T21:08:41.479Z,20.50
2023-02-08T21:11:09.882Z,16.67
2023-02-08T21:13:39.912Z,24.80
2023-02-08T21:16:08.784Z,17.07
2023-02-08T21:18:37.742Z,21.60
2023-02-08T21:21:06.498Z,13.13
2023-02-08T21:23:35.342Z,14.37
2023-02-08T21:26:04.432Z,17.40
2023-02-08T21:28:33.283Z,15.13
2023-02-08T21:31:04.195Z,14.20
2023-02-08T21:33:32.746Z,12.77
2023-02-08T21:36:03.258Z,17.73
2023-02-08T21:38:31.938Z,17.87
2023-02-08T21:41:00.404Z,14.50
2023-02-08T21:43:28.804Z,16.83
2023-02-08T21:45:57.245Z,14.10
2023-02-08T21:48:26.987Z,15.30
2023-02-08T21:51:12.794Z,14.47
2023-02-08T21:53:59.024Z,14.23
2023-02-08T21:56:27.465Z,19.57
2023-02-08T21:58:55.877Z,17.60
2023-02-08T22:01:24.323Z,15.63
2023-02-08T22:03:54.150Z,19.47
2023-02-08T22:06:40.295Z,15.90
2023-02-08T22:09:08.787Z,15.17
2023-02-08T22:11:37.211Z,12.83
2023-02-08T22:14:05.710Z,16.57
2023-02-08T22:16:34.216Z,15.30
2023-02-08T22:19:04.027Z,16.50
2023-02-08T22:21:32.485Z,16.67
2023-02-08T22:24:00.978Z,16.43
2023-02-08T22:26:29.532Z,15.63
2023-02-08T22:28:57.943Z,17.23
2023-02-08T22:31:26.501Z,17.53
2023-02-08T22:33:55.254Z,15.33
2023-02-08T22:36:25.069Z,16.77
2023-02-08T22:38:53.539Z,17.40
2023-02-08T22:41:21.950Z,19.03
2023-02-08T22:43:50.618Z,18.43
2023-02-08T22:46:19.146Z,17.43
2023-02-08T22:48:47.618Z,18.43
2023-02-08T22:51:17.498Z,17.80
2023-02-08T22:53:47.364Z,17.73
2023-02-08T22:56:16.369Z,17.90
2023-02-08T22:58:44.769Z,17.53
2023-02-08T23:01:13.860Z,16.80
2023-02-08T23:03:42.316Z,16.83
2023-02-08T23:06:11.897Z,15.93
2023-02-08T23:08:40.314Z,18.87
2023-02-08T23:11:10.099Z,17.13
2023-02-08T23:13:38.685Z,19.17
2023-02-08T23:16:07.499Z,18.27
2023-02-08T23:18:37.008Z,17.10
2023-02-08T23:21:08.497Z,14.90
2023-02-08T23:23:37.347Z,15.90
2023-02-08T23:26:06.360Z,17.97
2023-02-08T23:28:36.251Z,17.53
2023-02-08T23:31:06.426Z,18.23
2023-02-08T23:33:35.024Z,16.97
2023-02-08T23:36:06.710Z,17.87
2023-02-08T23:38:35.137Z,16.83
2023-02-08T23:41:04.577Z,17.87
2023-02-08T23:43:33.028Z,17.17
2023-02-08T23:46:06.935Z,17.07
2023-02-08T23:48:35.571Z,17.93
2023-02-08T23:51:04.789Z,17.90
2023-02-08T23:53:33.679Z,17.37
2023-02-08T23:56:07.104Z,21.30
2023-02-08T23:58:35.526Z,18.00
